createdAt,value
2018-12-16T00:01:45.074Z,84.19
2018-12-16T00:04:15.694Z,84.19
2018-12-16T00:06:44.405Z,84.38
2018-12-16T00:09:14.912Z,84.01
2018-12-16T00:11:43.665Z,84.76
2018-12-16T00:14:12.425Z,84.11
2018-12-16T00:16:41.206Z,84.01
2018-12-16T00:19:10.107Z,84.28
2018-12-16T00:21:39.864Z,83.95
2018-12-16T00:24:08.632Z,84.53
2018-12-16T00:26:49.003Z,84.48
2018-12-16T00:29:17.757Z,84.23
2018-12-16T00:31:49.418Z,84.33
2018-12-16T00:34:18.116Z,84.21
2018-12-16T00:36:46.934Z,83.96
2018-12-16T00:39:16.493Z,84.29
2018-12-16T00:41:45.844Z,84.74
2018-12-16T00:44:14.555Z,84.68
2018-12-16T00:46:44.549Z,84.39
2018-12-16T00:49:13.215Z,84.63
2018-12-16T00:51:42.521Z,84.30
2018-12-16T00:54:11.326Z,84.54
2018-12-16T00:56:40.619Z,84.37
2018-12-16T00:59:10.468Z,84.29
2018-12-16T01:01:39.788Z,84.42
2018-12-16T01:04:09.342Z,84.54
2018-12-16T01:06:38.535Z,84.19
2018-12-16T01:09:08.855Z,84.45
2018-12-16T01:11:37.792Z,83.85
2018-12-16T01:14:06.528Z,84.32
2018-12-16T01:16:35.656Z,83.46
2018-12-16T01:19:04.447Z,83.48
2018-12-16T01:21:34.481Z,83.68
2018-12-16T01:24:03.228Z,84.08
2018-12-16T01:26:31.940Z,83.60
2018-12-16T01:29:00.696Z,83.73
2018-12-16T01:31:29.383Z,84.14
2018-12-16T01:33:58.177Z,83.41
2018-12-16T01:36:27.697Z,83.79
2018-12-16T01:38:56.453Z,83.84
2018-12-16T01:41:26.876Z,83.46
2018-12-16T01:43:55.592Z,83.73
2018-12-16T01:46:24.962Z,83.91
2018-12-16T01:48:54.478Z,83.34
2018-12-16T01:51:23.837Z,83.13
2018-12-16T01:53:52.504Z,82.88
2018-12-16T01:56:21.270Z,83.50
2018-12-16T01:58:50.596Z,83.76
2018-12-16T02:01:19.354Z,83.63
2018-12-16T02:03:49.044Z,83.67
2018-12-16T02:06:17.791Z,84.28
2018-12-16T02:08:47.375Z,83.40
2018-12-16T02:11:16.102Z,83.96
2018-12-16T02:13:44.817Z,83.57
2018-12-16T02:16:13.553Z,83.34
2018-12-16T02:18:42.660Z,82.98
2018-12-16T02:21:12.056Z,83.15
2018-12-16T02:23:41.370Z,84.02
2018-12-16T02:26:10.612Z,84.36
2018-12-16T02:28:39.515Z,84.36
2018-12-16T02:31:09.410Z,84.26
2018-12-16T02:33:38.436Z,84.54
2018-12-16T02:36:07.908Z,84.13
2018-12-16T02:38:37.158Z,84.71
2018-12-16T02:41:06.516Z,84.89
2018-12-16T02:43:35.298Z,84.86
2018-12-16T02:46:04.638Z,84.11
2018-12-16T02:48:33.338Z,85.00
2018-12-16T02:51:02.752Z,85.41
2018-12-16T02:53:38.932Z,86.02
2018-12-16T02:56:08.813Z,86.25
2018-12-16T02:58:38.341Z,86.04
2018-12-16T03:01:07.650Z,86.78
2018-12-16T03:03:37.980Z,86.75
2018-12-16T03:06:07.538Z,86.78
2018-12-16T03:08:55.421Z,87.07
2018-12-16T03:11:24.214Z,86.47
2018-12-16T03:13:53.033Z,86.59
2018-12-16T03:16:21.786Z,87.12
2018-12-16T03:18:50.681Z,86.89
2018-12-16T03:21:19.430Z,86.86
2018-12-16T03:23:48.256Z,87.30
2018-12-16T03:26:16.949Z,87.40
2018-12-16T03:28:45.616Z,87.02
2018-12-16T03:31:14.653Z,87.22
2018-12-16T03:33:43.413Z,86.76
2018-12-16T03:36:12.889Z,87.08
2018-12-16T03:38:41.625Z,86.75
2018-12-16T03:41:14.604Z,86.36
2018-12-16T03:43:43.329Z,86.18
2018-12-16T03:46:12.647Z,85.86
2018-12-16T03:48:42.105Z,86.00
2018-12-16T03:51:11.456Z,86.28
2018-12-16T03:53:40.281Z,86.13
2018-12-16T03:56:09.743Z,86.28
2018-12-16T03:58:49.069Z,86.96
2018-12-16T04:01:17.774Z,87.06
2018-12-16T04:03:47.337Z,86.50
2018-12-16T04:06:16.813Z,87.09
2018-12-16T04:08:46.399Z,87.52
2018-12-16T04:11:15.171Z,87.14
2018-12-16T04:13:43.936Z,87.47
2018-12-16T04:16:12.619Z,87.31
2018-12-16T04:18:41.368Z,87.52
2018-12-16T04:21:10.915Z,87.55
2018-12-16T04:23:40.093Z,87.76
2018-12-16T04:26:08.964Z,88.04
2018-12-16T04:28:37.965Z,87.95
2018-12-16T04:31:07.407Z,88.13
2018-12-16T04:33:36.396Z,87.75
2018-12-16T04:36:06.466Z,88.29
2018-12-16T04:38:35.269Z,87.82
2018-12-16T04:41:04.504Z,87.96
2018-12-16T04:43:33.192Z,87.42
2018-12-16T04:46:01.886Z,88.44
2018-12-16T04:48:30.639Z,88.00
2018-12-16T04:51:00.015Z,88.79
2018-12-16T04:53:34.853Z,88.64
2018-12-16T04:56:00.360Z,88.96
2018-12-16T04:58:30.102Z,88.64
2018-12-16T05:00:58.960Z,88.30
2018-12-16T05:03:28.363Z,88.81
2018-12-16T05:05:58.126Z,88.46
2018-12-16T05:08:27.512Z,88.50
2018-12-16T05:10:56.368Z,88.96
2018-12-16T05:13:25.268Z,88.61
2018-12-16T05:15:54.013Z,88.62
2018-12-16T05:18:22.689Z,88.53
2018-12-16T05:20:52.006Z,88.49
2018-12-16T05:23:20.686Z,88.75
2018-12-16T05:25:49.374Z,88.50
2018-12-16T05:31:03.040Z,88.39
2018-12-16T05:33:31.747Z,89.06
2018-12-16T05:36:01.800Z,88.53
2018-12-16T05:38:30.543Z,88.23
2018-12-16T05:40:59.832Z,88.45
2018-12-16T05:43:28.550Z,88.46
2018-12-16T05:45:57.364Z,88.35
2018-12-16T05:48:26.269Z,88.21
2018-12-16T05:50:55.274Z,87.92
2018-12-16T05:53:25.476Z,87.99
2018-12-16T05:55:55.929Z,87.93
2018-12-16T05:58:25.431Z,88.41
2018-12-16T06:00:55.001Z,88.53
2018-12-16T06:03:24.449Z,88.19
2018-12-16T06:05:53.882Z,88.28
2018-12-16T06:08:23.287Z,87.50
2018-12-16T06:10:52.599Z,87.52
2018-12-16T06:13:21.332Z,87.45
2018-12-16T06:15:50.192Z,87.26
2018-12-16T06:18:19.133Z,87.16
2018-12-16T06:20:48.455Z,86.99
2018-12-16T06:23:17.193Z,86.34
2018-12-16T06:25:46.846Z,86.92
2018-12-16T06:28:15.621Z,86.63
2018-12-16T06:30:44.685Z,86.95
2018-12-16T06:33:13.491Z,86.67
2018-12-16T06:35:43.037Z,87.09
2018-12-16T06:38:11.907Z,86.38
2018-12-16T06:40:41.676Z,86.14
2018-12-16T06:43:10.546Z,86.04
2018-12-16T06:45:39.507Z,86.04
2018-12-16T06:48:08.408Z,85.42
2018-12-16T06:50:38.335Z,85.18
2018-12-16T06:53:07.752Z,85.00
2018-12-16T06:55:43.209Z,85.28
2018-12-16T06:58:11.321Z,85.63
2018-12-16T07:00:40.388Z,85.63
2018-12-16T07:03:09.724Z,85.76
2018-12-16T07:05:40.135Z,85.92
2018-12-16T07:08:10.126Z,86.06
2018-12-16T07:10:40.040Z,86.18
2018-12-16T07:13:09.304Z,86.54
2018-12-16T07:15:39.387Z,87.04
2018-12-16T07:18:08.484Z,86.91
2018-12-16T07:20:37.627Z,87.19
2018-12-16T07:23:06.451Z,87.29
2018-12-16T07:25:35.156Z,86.64
2018-12-16T07:28:03.878Z,86.85
2018-12-16T07:30:32.772Z,87.21
2018-12-16T07:33:01.632Z,86.87
2018-12-16T07:35:32.209Z,87.34
2018-12-16T07:38:01.178Z,87.61
2018-12-16T07:40:30.795Z,87.01
2018-12-16T07:43:00.155Z,87.26
2018-12-16T07:45:28.995Z,87.17
2018-12-16T07:47:57.967Z,87.32
2018-12-16T07:50:26.786Z,87.57
2018-12-16T07:52:57.041Z,86.32
2018-12-16T07:55:28.319Z,86.41
2018-12-16T07:57:58.186Z,86.77
2018-12-16T08:00:26.910Z,86.49
2018-12-16T08:06:28.653Z,87.15
2018-12-16T08:08:58.524Z,86.91
2018-12-16T08:11:27.417Z,86.82
2018-12-16T08:13:56.440Z,86.85
2018-12-16T08:16:26.411Z,86.55
2018-12-16T08:18:56.013Z,86.53
2018-12-16T08:21:25.561Z,86.21
2018-12-16T08:23:54.586Z,86.08
2018-12-16T08:26:23.449Z,86.25
2018-12-16T08:28:52.619Z,86.50
2018-12-16T08:31:21.439Z,86.54
2018-12-16T08:33:50.364Z,86.14
2018-12-16T08:36:19.689Z,86.50
2018-12-16T08:38:50.317Z,86.13
2018-12-16T08:41:19.742Z,86.33
2018-12-16T08:43:49.077Z,86.42
2018-12-16T08:46:17.832Z,86.06
2018-12-16T08:51:32.992Z,85.73
2018-12-16T08:54:01.761Z,86.07
2018-12-16T08:56:31.108Z,85.40
2018-12-16T08:59:00.691Z,85.99
2018-12-16T09:01:29.445Z,85.72
2018-12-16T09:03:59.157Z,85.16
2018-12-16T09:06:28.652Z,85.01
2018-12-16T09:08:58.589Z,85.31
2018-12-16T09:11:57.920Z,85.28
2018-12-16T09:14:26.809Z,85.19
2018-12-16T09:16:55.541Z,85.01
2018-12-16T09:19:25.173Z,85.39
2018-12-16T09:21:54.011Z,84.98
2018-12-16T09:24:22.729Z,85.08
2018-12-16T09:26:51.512Z,84.95
2018-12-16T09:29:20.255Z,84.84
2018-12-16T09:31:49.264Z,84.49
2018-12-16T09:34:19.010Z,84.57
2018-12-16T09:36:48.995Z,84.18
2018-12-16T09:39:17.769Z,84.27
2018-12-16T09:41:47.040Z,84.53
2018-12-16T09:44:15.820Z,84.52
2018-12-16T09:46:44.979Z,84.61
2018-12-16T09:49:13.712Z,84.42
2018-12-16T09:51:43.156Z,84.18
2018-12-16T09:54:11.991Z,84.46
2018-12-16T09:56:41.953Z,84.00
2018-12-16T09:59:11.318Z,84.13
2018-12-16T10:01:42.499Z,84.53
2018-12-16T10:04:12.936Z,84.20
2018-12-16T10:06:43.403Z,84.19
2018-12-16T10:09:12.942Z,84.32
2018-12-16T10:11:41.736Z,84.55
2018-12-16T10:14:10.483Z,84.59
2018-12-16T10:16:39.929Z,84.45
2018-12-16T10:19:09.430Z,83.94
2018-12-16T10:21:38.471Z,84.26
2018-12-16T10:24:07.441Z,84.19
2018-12-16T10:26:39.187Z,84.30
2018-12-16T10:29:08.123Z,84.00
2018-12-16T10:31:37.078Z,84.27
2018-12-16T10:34:05.869Z,84.07
2018-12-16T10:36:35.447Z,84.01
2018-12-16T10:39:07.884Z,84.00
2018-12-16T10:41:37.319Z,84.15
2018-12-16T10:44:06.322Z,84.13
2018-12-16T10:46:34.997Z,84.15
2018-12-16T10:49:04.872Z,84.26
2018-12-16T10:51:34.561Z,84.08
2018-12-16T10:54:03.815Z,83.85
2018-12-16T10:56:33.029Z,84.11
2018-12-16T10:59:02.894Z,84.00
2018-12-16T11:01:32.040Z,84.17
2018-12-16T11:04:01.580Z,84.19
2018-12-16T11:06:31.081Z,84.20
2018-12-16T11:09:00.961Z,84.11
2018-12-16T11:11:29.628Z,84.54
2018-12-16T11:13:58.501Z,84.79
2018-12-16T11:16:27.430Z,84.21
2018-12-16T11:18:57.095Z,84.09
2018-12-16T11:21:26.012Z,84.30
2018-12-16T11:23:54.768Z,84.40
2018-12-16T11:26:23.606Z,84.17
2018-12-16T11:28:52.413Z,84.34
2018-12-16T11:31:21.221Z,84.21
2018-12-16T11:33:50.140Z,84.71
2018-12-16T11:36:19.751Z,84.22
2018-12-16T11:38:49.326Z,83.77
2018-12-16T11:41:18.528Z,83.82
2018-12-16T11:43:47.259Z,83.80
2018-12-16T11:46:15.964Z,83.93
2018-12-16T11:48:44.757Z,84.03
2018-12-16T11:51:14.437Z,83.47
2018-12-16T11:53:43.127Z,83.54
2018-12-16T11:56:13.877Z,83.70
2018-12-16T11:58:43.484Z,83.40
2018-12-16T12:01:12.337Z,83.57
2018-12-16T12:03:41.942Z,83.62
2018-12-16T12:06:11.757Z,83.63
2018-12-16T12:08:41.451Z,83.87
2018-12-16T12:11:10.427Z,84.06
2018-12-16T12:13:39.476Z,84.26
2018-12-16T12:16:08.394Z,84.36
2018-12-16T12:18:37.290Z,84.52
2018-12-16T12:21:06.684Z,84.13
2018-12-16T12:23:35.432Z,84.49
2018-12-16T12:26:04.173Z,83.76
2018-12-16T12:28:33.244Z,83.60
2018-12-16T12:31:02.239Z,83.87
2018-12-16T12:33:31.361Z,84.06
2018-12-16T12:36:00.873Z,84.29
2018-12-16T12:38:30.399Z,84.45
2018-12-16T12:41:00.036Z,84.30
2018-12-16T12:43:28.876Z,84.73
2018-12-16T12:45:58.294Z,85.12
2018-12-16T12:48:27.197Z,85.32
2018-12-16T12:50:56.001Z,84.61
2018-12-16T12:53:25.342Z,84.79
2018-12-16T12:55:54.694Z,84.29
2018-12-16T12:58:24.232Z,84.92
2018-12-16T13:00:53.692Z,84.72
2018-12-16T13:03:23.167Z,85.01
2018-12-16T13:05:52.985Z,84.48
2018-12-16T13:08:22.447Z,85.10
2018-12-16T13:10:51.200Z,85.86
2018-12-16T13:13:19.921Z,85.47
2018-12-16T13:15:48.657Z,85.93
2018-12-16T13:18:18.084Z,85.92
2018-12-16T13:20:46.844Z,85.98
2018-12-16T13:23:15.540Z,86.79
2018-12-16T13:25:55.522Z,86.51
2018-12-16T13:28:24.494Z,86.86
2018-12-16T13:30:53.190Z,86.91
2018-12-16T13:33:22.100Z,86.51
2018-12-16T13:35:51.598Z,86.97
2018-12-16T13:38:21.873Z,87.33
2018-12-16T13:40:51.307Z,87.34
2018-12-16T13:43:20.161Z,87.35
2018-12-16T13:45:48.967Z,87.55
2018-12-16T13:48:17.774Z,87.61
2018-12-16T13:50:46.480Z,88.43
2018-12-16T13:53:16.015Z,87.81
2018-12-16T13:55:45.673Z,88.15
2018-12-16T13:58:15.140Z,88.71
2018-12-16T14:00:43.849Z,87.64
2018-12-16T14:03:13.085Z,88.47
2018-12-16T14:05:46.696Z,88.28
2018-12-16T14:08:13.994Z,88.40
2018-12-16T14:10:43.585Z,89.00
2018-12-16T14:13:12.361Z,88.74
2018-12-16T14:15:41.321Z,88.79
2018-12-16T14:18:10.401Z,89.51
2018-12-16T14:20:40.698Z,89.38
2018-12-16T14:23:09.826Z,89.27
2018-12-16T14:25:38.559Z,89.39
2018-12-16T14:28:07.287Z,88.97
2018-12-16T14:30:36.091Z,89.30
2018-12-16T14:33:04.860Z,89.49
2018-12-16T14:35:35.236Z,89.47
2018-12-16T14:38:04.251Z,89.10
2018-12-16T14:40:33.671Z,89.97
2018-12-16T14:43:02.368Z,89.44
2018-12-16T14:45:31.226Z,89.83
2018-12-16T14:48:00.685Z,90.07
2018-12-16T14:50:29.399Z,89.84
2018-12-16T14:52:58.715Z,90.07
2018-12-16T14:55:28.132Z,90.24
2018-12-16T14:57:57.615Z,90.12
2018-12-16T15:00:26.605Z,89.60
2018-12-16T15:02:56.620Z,89.89
2018-12-16T15:05:33.227Z,90.10
2018-12-16T15:08:02.697Z,90.53
2018-12-16T15:10:31.423Z,89.86
2018-12-16T15:13:00.475Z,90.14
2018-12-16T15:15:29.462Z,89.71
2018-12-16T15:17:58.391Z,90.34
2018-12-16T15:20:27.293Z,89.76
2018-12-16T15:22:56.446Z,89.92
2018-12-16T15:25:25.295Z,90.46
2018-12-16T15:27:54.007Z,90.40
2018-12-16T15:30:22.753Z,90.28
2018-12-16T15:32:51.665Z,90.71
2018-12-16T15:35:20.880Z,90.77
2018-12-16T15:37:49.606Z,90.82
2018-12-16T15:40:18.944Z,90.69
2018-12-16T15:42:47.667Z,91.39
2018-12-16T15:45:16.429Z,90.40
2018-12-16T15:47:45.153Z,90.91
2018-12-16T15:50:14.200Z,91.01
2018-12-16T15:52:43.493Z,90.85
2018-12-16T15:55:13.328Z,91.12
2018-12-16T15:57:43.140Z,91.23
2018-12-16T16:00:13.339Z,90.66
2018-12-16T16:02:42.857Z,90.36
2018-12-16T16:05:12.552Z,90.95
2018-12-16T16:07:41.841Z,90.33
2018-12-16T16:10:11.232Z,90.58
2018-12-16T16:12:40.303Z,90.78
2018-12-16T16:15:09.494Z,90.51
2018-12-16T16:17:38.503Z,90.23
2018-12-16T16:20:07.563Z,90.79
2018-12-16T16:22:36.424Z,90.33
2018-12-16T16:25:05.701Z,90.60
2018-12-16T16:27:34.616Z,90.22
2018-12-16T16:30:03.458Z,90.16
2018-12-16T16:32:32.210Z,90.17
2018-12-16T16:35:01.768Z,90.52
2018-12-16T16:37:30.595Z,89.90
2018-12-16T16:40:02.727Z,89.93
2018-12-16T16:42:31.493Z,90.58
2018-12-16T16:45:00.290Z,90.24
2018-12-16T16:47:29.321Z,90.56
2018-12-16T16:49:58.315Z,90.29
2018-12-16T16:52:27.673Z,89.94
2018-12-16T16:55:00.920Z,90.23
2018-12-16T16:57:30.390Z,90.27
2018-12-16T16:59:59.515Z,89.93
2018-12-16T17:02:29.449Z,89.78
2018-12-16T17:04:59.929Z,89.92
2018-12-16T17:07:29.689Z,89.82
2018-12-16T17:09:59.232Z,90.33
2018-12-16T17:12:28.095Z,90.33
2018-12-16T17:14:58.077Z,90.87
2018-12-16T17:17:26.998Z,90.51
2018-12-16T17:19:55.736Z,90.43
2018-12-16T17:22:24.538Z,89.95
2018-12-16T17:24:53.308Z,90.41
2018-12-16T17:27:22.133Z,90.08
2018-12-16T17:29:51.068Z,90.50
2018-12-16T17:32:19.815Z,91.20
2018-12-16T17:34:49.572Z,90.83
2018-12-16T17:37:18.301Z,90.43
2018-12-16T17:39:47.874Z,90.74
2018-12-16T17:42:17.202Z,90.45
2018-12-16T17:44:45.952Z,90.64
2018-12-16T17:47:14.843Z,90.74
2018-12-16T17:49:43.781Z,90.40
2018-12-16T17:52:20.473Z,90.97
2018-12-16T17:54:49.265Z,90.81
2018-12-16T17:57:19.962Z,90.70
2018-12-16T17:59:49.546Z,91.15
2018-12-16T18:02:19.419Z,90.87
2018-12-16T18:04:48.722Z,90.61
2018-12-16T18:07:18.079Z,91.05
2018-12-16T18:09:49.725Z,91.12
2018-12-16T18:16:59.988Z,90.87
2018-12-16T18:19:28.931Z,90.93
2018-12-16T18:22:01.420Z,91.27
2018-12-16T18:24:30.831Z,91.04
2018-12-16T18:27:02.325Z,90.67
2018-12-16T18:29:31.683Z,91.11
2018-12-16T18:32:01.983Z,90.05
2018-12-16T18:34:32.572Z,90.34
2018-12-16T18:37:02.200Z,90.88
2018-12-16T18:39:32.010Z,89.88
2018-12-16T18:42:01.619Z,90.10
2018-12-16T18:44:31.225Z,89.81
2018-12-16T18:47:00.457Z,89.88
2018-12-16T18:49:29.449Z,89.55
2018-12-16T18:52:22.849Z,90.40
2018-12-16T18:54:51.626Z,89.53
2018-12-16T18:57:21.273Z,90.37
2018-12-16T18:59:49.946Z,89.85
2018-12-16T19:02:19.298Z,89.51
2018-12-16T19:04:48.673Z,89.92
2018-12-16T19:07:17.980Z,90.09
2018-12-16T19:09:47.544Z,90.15
2018-12-16T19:12:16.339Z,89.74
2018-12-16T19:14:45.611Z,89.95
2018-12-16T19:17:14.542Z,90.34
2018-12-16T19:19:43.433Z,90.06
2018-12-16T19:22:12.314Z,90.05
2018-12-16T19:24:41.407Z,90.33
2018-12-16T19:27:11.118Z,90.14
2018-12-16T19:29:39.877Z,90.33
2018-12-16T19:32:08.635Z,89.96
2018-12-16T19:34:37.963Z,89.38
2018-12-16T19:37:06.667Z,89.52
2018-12-16T19:39:36.081Z,89.63
2018-12-16T19:42:05.098Z,89.71
2018-12-16T19:44:34.671Z,89.65
2018-12-16T19:47:08.572Z,90.41
2018-12-16T19:49:37.467Z,89.74
2018-12-16T19:52:08.698Z,90.34
2018-12-16T19:54:37.877Z,90.18
2018-12-16T19:57:07.290Z,90.49
2018-12-16T19:59:35.981Z,90.19
2018-12-16T20:02:06.023Z,90.42
2018-12-16T20:04:41.109Z,90.19
2018-12-16T20:07:11.130Z,91.02
2018-12-16T20:09:40.661Z,90.58
2018-12-16T20:12:09.548Z,91.19
2018-12-16T20:14:38.469Z,90.06
2018-12-16T20:17:07.246Z,90.33
2018-12-16T20:19:35.959Z,89.80
2018-12-16T20:22:04.757Z,89.93
2018-12-16T20:24:33.688Z,90.13
2018-12-16T20:27:02.511Z,89.48
2018-12-16T20:29:31.300Z,89.85
2018-12-16T20:32:00.935Z,89.53
2018-12-16T20:34:30.435Z,89.52
2018-12-16T20:36:59.419Z,89.23
2018-12-16T20:39:29.086Z,89.87
2018-12-16T20:41:58.604Z,89.65
2018-12-16T20:44:27.379Z,90.30
2018-12-16T20:46:56.068Z,90.17
2018-12-16T20:49:24.795Z,89.45
2018-12-16T20:51:54.490Z,90.10
2018-12-16T20:54:23.906Z,90.26
2018-12-16T20:56:53.281Z,90.17
2018-12-16T20:59:22.544Z,89.85
2018-12-16T21:01:51.810Z,89.89
2018-12-16T21:04:20.905Z,90.31
2018-12-16T21:06:50.856Z,89.51
2018-12-16T21:09:20.276Z,89.86
2018-12-16T21:11:54.318Z,90.80
2018-12-16T21:14:28.240Z,89.94
2018-12-16T21:17:02.112Z,89.86
2018-12-16T21:19:31.479Z,90.50
2018-12-16T21:22:00.602Z,89.87
2018-12-16T21:24:29.418Z,90.09
2018-12-16T21:26:58.271Z,90.13
2018-12-16T21:29:27.914Z,90.12
2018-12-16T21:31:56.708Z,90.19
2018-12-16T21:34:26.238Z,90.17
2018-12-16T21:36:55.003Z,90.35
2018-12-16T21:39:24.616Z,90.55
2018-12-16T21:41:54.227Z,90.46
2018-12-16T21:44:22.968Z,90.57
2018-12-16T21:46:52.045Z,89.91
2018-12-16T21:49:20.829Z,90.54
2018-12-16T21:51:50.072Z,90.66
2018-12-16T21:54:18.978Z,89.95
2018-12-16T21:56:48.310Z,90.05
2018-12-16T21:59:17.550Z,89.66
2018-12-16T22:01:47.096Z,89.26
2018-12-16T22:04:17.189Z,89.09
2018-12-16T22:06:46.872Z,89.43
2018-12-16T22:09:16.293Z,89.67
2018-12-16T22:11:45.001Z,89.42
2018-12-16T22:14:13.864Z,89.05
2018-12-16T22:16:42.618Z,89.33
2018-12-16T22:19:11.500Z,89.65
2018-12-16T22:21:40.464Z,89.18
2018-12-16T22:24:09.377Z,88.98
2018-12-16T22:26:38.091Z,89.57
2018-12-16T22:29:07.414Z,88.78
2018-12-16T22:31:36.181Z,88.91
2018-12-16T22:34:05.460Z,89.14
2018-12-16T22:36:34.982Z,89.06
2018-12-16T22:39:05.400Z,88.83
2018-12-16T22:41:34.886Z,88.85
2018-12-16T22:44:04.177Z,89.30
2018-12-16T22:46:33.547Z,89.02
2018-12-16T22:49:03.323Z,89.15
2018-12-16T22:51:33.600Z,88.96
2018-12-16T22:54:02.331Z,89.08
2018-12-16T22:56:31.736Z,89.52
2018-12-16T22:59:02.102Z,89.46
2018-12-16T23:01:31.828Z,89.06
2018-12-16T23:04:01.304Z,89.42
2018-12-16T23:06:30.983Z,89.17
2018-12-16T23:09:00.586Z,88.72
2018-12-16T23:11:29.769Z,88.70
2018-12-16T23:13:59.613Z,88.85
2018-12-16T23:16:28.388Z,89.26
2018-12-16T23:18:57.339Z,89.23
2018-12-16T23:21:26.101Z,88.11
2018-12-16T23:23:55.256Z,88.10
2018-12-16T23:26:24.161Z,88.05
2018-12-16T23:28:52.847Z,88.58
2018-12-16T23:31:21.605Z,88.50
2018-12-16T23:33:50.434Z,87.99
2018-12-16T23:36:19.752Z,88.26
2018-12-16T23:38:49.407Z,88.48
2018-12-16T23:41:19.221Z,87.63
2018-12-16T23:43:47.918Z,87.92
2018-12-16T23:46:17.164Z,88.48
2018-12-16T23:48:45.833Z,88.10
2018-12-16T23:51:15.060Z,87.96
2018-12-16T23:53:43.878Z,87.92
2018-12-16T23:56:13.667Z,88.60
2018-12-16T23:58:43.138Z,88.15
